Terminal Aerodrome Forecast
Issued by NWS Portland, OR

Home | Current Version | Previous Version | Text Only | Print | Product List | Glossary On
Versions: 1 2 3 4 5 6 7 8 9 10 11 12 13 14 15 16 17 18 19 20 21 22 23 24 25 26 27 28 29 30 31 32 33 34 35 36 37 38
000
FTUS46 KPQR 302330
TAFAST
TAF
KAST 302330Z 3100/3124 22013KT P6SM SCT025 SCT050
     FM310800 21006KT P6SM VCSH BKN025
     FM311300 21008KT P6SM SHRA BKN015
     FM311900 21012KT P6SM RA BKN025=

USA.gov is the U.S. government's official web portal to all federal, state and local government web resources and services.